Terminal Aerodrome Forecast
Issued by NWS Sioux Falls, SD

Home | Current Version | Previous Version | Text Only | Print | Product List | Glossary On
Versions: 1 2 3 4 5 6 7 8 9 10 11 12 13 14 15 16 17 18 19 20
192
FTUS43 KFSD 181546 AAB
TAFFSD
TAF AMD
KFSD 181546Z 1816/1912 14008KT P6SM OVC008
      TEMPO 1816/1818 4SM BR BKN004
     FM181900 16011KT P6SM BKN015
     FM182100 16011KT P6SM SCT035
     FM190300 15009KT P6SM BKN012
     FM190600 14009KT P6SM BKN005
     FM190900 14009KT 4SM BR OVC003=

USA.gov is the U.S. government's official web portal to all federal, state and local government web resources and services.